Time;durP1;ratioP1;P1;durP2;ratioP2;P2;SDS_P1;SDS_P2;PMS_P1;PMS_P2;Temp;Humidity;BMP_temperature;BMP_pressure;BME280_temperature;BME280_humidity;BME280_pressure;Samples;Min_cycle;Max_cycle;Signal;HPM_P1;HPM_P2
2023/01/17 00:02:16;;;;;;;5.17;2.17;;;27.60;62.70;;;;;;5053256;28;20259;-70
2023/01/17 00:10:18;;;;;;;10.80;7.17;;;26.80;64.50;;;;;;5049412;28;20190;-70
2023/01/17 00:12:53;;;;;;;3.90;1.60;;;26.90;64.10;;;;;;5052783;28;20176;-74
2023/01/17 00:15:22;;;;;;;5.87;1.47;;;26.80;64.40;;;;;;5050714;28;20194;-72
2023/01/17 00:17:50;;;;;;;6.53;2.00;;;27.10;63.80;;;;;;5051963;28;20271;-71
2023/01/17 00:26:19;;;;;;;4.97;1.30;;;28.10;60.30;;;;;;5047532;28;20553;-69
2023/01/17 01:33:37;;;;;;;5.10;1.47;;;28.50;58.90;;;;;;5050133;28;20198;-70
2023/01/17 01:36:08;;;;;;;7.73;1.70;;;28.60;58.60;;;;;;5051383;28;20191;-68
2023/01/17 01:38:35;;;;;;;6.67;1.63;;;28.60;58.80;;;;;;5051803;28;20206;-71
2023/01/17 01:41:03;;;;;;;5.77;1.50;;;29.00;56.90;;;;;;5052013;28;20186;-69
2023/01/17 01:43:51;;;;;;;7.20;1.33;;;29.10;57.50;;;;;;5051831;28;20697;-71
2023/01/17 01:46:40;;;;;;;7.03;1.60;;;29.20;55.90;;;;;;5052193;28;20187;-68
2023/01/17 01:49:23;;;;;;;8.70;1.63;;;29.10;56.50;;;;;;5052397;28;20534;-71
2023/01/17 01:52:02;;;;;;;3.60;1.00;;;29.10;56.90;;;;;;5052283;28;20235;-70
2023/01/17 01:54:45;;;;;;;6.67;1.70;;;28.90;58.50;;;;;;5052003;28;20219;-71
2023/01/17 01:57:17;;;;;;;4.33;1.37;;;28.90;58.20;;;;;;5050971;28;20210;-69
2023/01/17 01:59:53;;;;;;;10.47;1.67;;;29.10;57.80;;;;;;5051888;28;20336;-70
2023/01/17 02:02:20;;;;;;;6.23;1.27;;;28.60;58.50;;;;;;5051477;28;20242;-71
2023/01/17 02:04:48;;;;;;;5.60;1.10;;;28.40;59.20;;;;;;5052450;28;20657;-69
2023/01/17 02:07:37;;;;;;;6.50;1.30;;;28.70;59.20;;;;;;5055997;28;20238;-69
2023/01/17 02:10:05;;;;;;;5.97;1.40;;;28.60;59.40;;;;;;5055332;28;20644;-71
2023/01/17 02:12:33;;;;;;;6.00;1.30;;;28.50;59.60;;;;;;5055822;28;20510;-71
2023/01/17 02:15:01;;;;;;;6.67;1.70;;;28.50;59.70;;;;;;5055535;28;20546;-70
2023/01/17 02:18:09;;;;;;;5.83;1.60;;;28.80;59.30;;;;;;5049335;28;20996;-70
2023/01/17 02:21:06;;;;;;;9.13;1.57;;;29.00;59.30;;;;;;5053431;28;20191;-70
2023/01/17 02:24:00;;;;;;;7.17;1.57;;;28.80;58.90;;;;;;5056905;28;20620;-79
2023/01/17 02:26:34;;;;;;;5.70;1.30;;;28.50;59.70;;;;;;5054047;28;20662;-75
2023/01/17 02:29:22;;;;;;;6.10;1.60;;;28.90;58.80;;;;;;5053009;28;20636;-73
2023/01/17 02:32:23;;;;;;;14.03;3.00;;;29.00;57.70;;;;;;5054998;28;20172;-75
2023/01/17 02:35:05;;;;;;;4.87;1.03;;;29.00;59.00;;;;;;5053380;28;20237;-71
2023/01/17 02:37:54;;;;;;;4.83;1.10;;;29.00;57.80;;;;;;5056020;28;20171;-74
2023/01/17 02:40:40;;;;;;;7.57;1.20;;;28.80;58.30;;;;;;5058820;28;20196;-70
2023/01/17 02:43:14;;;;;;;8.33;1.30;;;29.00;57.50;;;;;;5056509;28;20172;-73
2023/01/17 02:45:42;;;;;;;10.43;1.50;;;29.30;56.70;;;;;;5053823;28;20261;-74
2023/01/17 02:48:13;;;;;;;10.00;1.23;;;29.30;56.00;;;;;;5056548;28;20192;-72
2023/01/17 02:51:21;;;;;;;6.97;1.20;;;29.30;56.60;;;;;;5057117;28;20724;-71
2023/01/17 02:54:17;;;;;;;6.50;1.17;;;29.80;54.70;;;;;;5051364;28;20196;-72
2023/01/17 02:56:52;;;;;;;15.40;1.63;;;29.70;55.90;;;;;;5034972;28;20635;-73
2023/01/17 02:59:47;;;;;;;4.27;1.00;;;29.50;56.40;;;;;;5044714;28;20223;-72
2023/01/17 03:02:20;;;;;;;4.30;1.33;;;28.70;58.50;;;;;;5054869;28;20183;-74
2023/01/17 03:05:16;;;;;;;4.37;1.17;;;29.40;57.30;;;;;;5054855;28;20164;-72
2023/01/17 03:07:45;;;;;;;3.93;1.13;;;29.40;56.40;;;;;;5036609;28;20833;-72
2023/01/17 03:10:15;;;;;;;4.77;1.37;;;29.40;55.90;;;;;;5051089;28;20215;-72
2023/01/17 03:12:43;;;;;;;8.27;1.60;;;29.80;55.80;;;;;;5053888;28;20282;-71
2023/01/17 03:15:16;;;;;;;8.13;1.50;;;29.80;55.20;;;;;;5054093;28;20647;-71
2023/01/17 03:17:52;;;;;;;3.50;0.97;;;30.30;54.30;;;;;;5052836;28;20184;-71
2023/01/17 03:20:20;;;;;;;11.20;1.70;;;29.80;55.10;;;;;;5047410;28;20190;-71
2023/01/17 03:22:47;;;;;;;4.17;1.23;;;29.60;55.20;;;;;;5053996;28;20198;-71
2023/01/17 03:25:16;;;;;;;3.30;0.90;;;29.70;55.10;;;;;;5052743;28;20188;-73
2023/01/17 03:27:43;;;;;;;4.20;1.30;;;29.40;55.00;;;;;;5053261;28;20187;-72
2023/01/17 03:30:11;;;;;;;4.47;1.70;;;29.50;55.50;;;;;;5053150;28;21835;-74
2023/01/17 03:32:39;;;;;;;6.17;1.27;;;29.90;55.00;;;;;;5053563;28;20184;-68
2023/01/17 03:35:07;;;;;;;6.83;1.50;;;29.80;55.20;;;;;;5054072;28;20183;-69
2023/01/17 03:37:34;;;;;;;3.77;1.10;;;29.80;55.40;;;;;;5052385;28;20184;-71
2023/01/17 03:40:01;;;;;;;6.63;2.10;;;29.80;55.40;;;;;;5053848;28;20587;-71
2023/01/17 03:42:29;;;;;;;7.43;3.13;;;29.70;55.00;;;;;;5052154;28;20187;-72
2023/01/17 03:44:56;;;;;;;2.53;1.10;;;29.50;55.00;;;;;;5053145;28;20259;-75
2023/01/17 03:47:23;;;;;;;7.27;1.17;;;29.90;53.20;;;;;;5052937;28;20180;-73
2023/01/17 03:49:51;;;;;;;7.33;1.30;;;29.90;53.40;;;;;;5053730;28;20693;-71
2023/01/17 03:52:18;;;;;;;5.03;1.30;;;29.90;54.30;;;;;;5053659;28;20712;-74
2023/01/17 03:54:47;;;;;;;2.80;0.80;;;29.80;54.40;;;;;;5053453;28;20173;-72
2023/01/17 03:57:14;;;;;;;6.20;1.33;;;30.10;53.30;;;;;;5052914;28;20204;-76
2023/01/17 03:59:41;;;;;;;4.33;1.23;;;30.10;54.20;;;;;;5053427;28;20219;-74
2023/01/17 04:02:09;;;;;;;3.00;1.00;;;29.80;55.60;;;;;;5053490;28;20269;-72
2023/01/17 04:04:36;;;;;;;6.77;1.43;;;30.00;55.80;;;;;;5053252;28;20666;-74
2023/01/17 04:07:03;;;;;;;4.63;1.23;;;29.90;55.00;;;;;;5053594;28;20180;-70
2023/01/17 04:09:32;;;;;;;6.00;1.33;;;30.90;53.80;;;;;;5052360;28;20241;-76
2023/01/17 04:12:03;;;;;;;7.10;1.50;;;31.50;51.50;;;;;;5053106;28;20180;-73
2023/01/17 04:14:30;;;;;;;3.80;1.07;;;30.70;52.70;;;;;;5051729;28;20183;-72
2023/01/17 04:16:58;;;;;;;4.18;1.30;;;30.60;53.70;;;;;;5052413;28;20598;-74
2023/01/17 04:19:26;;;;;;;5.50;1.40;;;30.80;52.60;;;;;;5052878;28;20240;-73
2023/01/17 04:21:53;;;;;;;5.07;1.38;;;30.00;54.40;;;;;;5053216;28;20172;-74
2023/01/17 04:24:20;;;;;;;3.70;1.40;;;30.50;53.20;;;;;;5053355;28;20653;-73
2023/01/17 04:26:48;;;;;;;4.10;1.20;;;29.80;53.40;;;;;;5053211;28;20176;-72
2023/01/17 04:29:15;;;;;;;5.13;1.20;;;30.30;52.40;;;;;;5052544;28;20184;-73
2023/01/17 04:31:42;;;;;;;3.17;0.82;;;29.80;54.60;;;;;;5053052;28;20219;-71
2023/01/17 04:34:10;;;;;;;4.43;1.00;;;30.60;51.80;;;;;;5053046;28;20185;-73
2023/01/17 04:36:37;;;;;;;5.32;1.55;;;30.60;52.10;;;;;;5052891;28;20234;-71
2023/01/17 04:39:05;;;;;;;3.83;1.17;;;30.90;51.60;;;;;;5053180;28;20241;-71
2023/01/17 04:41:33;;;;;;;4.53;1.40;;;30.90;52.20;;;;;;5049216;28;20650;-73
2023/01/17 04:44:00;;;;;;;6.47;1.30;;;30.80;52.40;;;;;;5052846;28;20281;-74
2023/01/17 04:46:28;;;;;;;4.07;1.27;;;30.70;52.30;;;;;;5051553;28;20194;-72
2023/01/17 04:48:55;;;;;;;5.10;1.40;;;30.30;53.00;;;;;;5051955;28;20184;-73
2023/01/17 04:51:23;;;;;;;6.18;1.30;;;30.60;52.60;;;;;;5046365;28;20231;-76
2023/01/17 04:53:50;;;;;;;4.78;1.30;;;30.30;53.30;;;;;;5050867;28;20183;-72
2023/01/17 04:56:18;;;;;;;5.82;1.42;;;30.10;54.00;;;;;;5051785;28;20249;-74
2023/01/17 04:58:45;;;;;;;8.50;1.30;;;30.00;54.40;;;;;;5051035;28;20235;-71
2023/01/17 05:01:13;;;;;;;6.65;1.20;;;29.80;53.80;;;;;;5046866;28;20184;-73
2023/01/17 05:03:40;;;;;;;4.88;1.52;;;30.80;52.50;;;;;;5052605;28;20639;-72
2023/01/17 05:06:07;;;;;;;4.07;1.40;;;30.70;51.80;;;;;;5050913;28;20176;-74
2023/01/17 05:08:35;;;;;;;6.15;1.42;;;30.20;52.50;;;;;;5052468;28;20180;-71
2023/01/17 05:11:02;;;;;;;3.40;1.00;;;30.90;51.40;;;;;;5051622;28;20254;-73
2023/01/17 05:13:29;;;;;;;4.30;1.05;;;31.10;50.90;;;;;;5049736;28;20179;-72
2023/01/17 05:15:57;;;;;;;3.08;0.88;;;30.90;51.50;;;;;;5050060;28;20290;-79
2023/01/17 05:18:25;;;;;;;3.17;1.15;;;30.90;51.20;;;;;;5050491;28;20202;-70
2023/01/17 05:20:52;;;;;;;4.10;1.20;;;30.60;53.20;;;;;;5048695;28;20187;-78
2023/01/17 05:23:19;;;;;;;3.58;1.30;;;30.90;51.80;;;;;;5050713;28;20532;-75
2023/01/17 05:25:47;;;;;;;5.03;1.02;;;31.60;50.00;;;;;;5049680;28;20266;-71
2023/01/17 05:28:14;;;;;;;3.42;0.90;;;31.30;50.30;;;;;;5051164;28;20184;-71
2023/01/17 05:30:41;;;;;;;5.72;1.25;;;31.80;49.50;;;;;;5052000;28;20171;-75
2023/01/17 05:33:09;;;;;;;3.35;1.17;;;32.00;49.20;;;;;;5049519;28;20262;-70
2023/01/17 05:35:37;;;;;;;5.78;1.20;;;30.90;50.70;;;;;;5051457;28;20183;-77
2023/01/17 05:38:04;;;;;;;5.22;1.20;;;31.10;50.40;;;;;;5050938;28;20192;-73
2023/01/17 05:40:32;;;;;;;5.63;1.27;;;30.10;53.70;;;;;;5051809;28;20176;-71
2023/01/17 05:43:04;;;;;;;7.75;1.70;;;30.50;53.20;;;;;;5056034;28;20225;-72
2023/01/17 05:45:33;;;;;;;8.50;1.63;;;31.00;52.20;;;;;;5053605;28;20180;-74
2023/01/17 05:48:00;;;;;;;5.15;1.33;;;31.40;50.90;;;;;;5052838;28;20180;-71
2023/01/17 05:50:33;;;;;;;7.90;1.63;;;31.00;51.00;;;;;;5048600;28;20693;-71
2023/01/17 05:53:22;;;;;;;4.53;1.00;;;30.90;51.00;;;;;;5070397;28;20278;-72
2023/01/17 05:55:49;;;;;;;6.18;1.30;;;31.30;50.50;;;;;;5062485;28;20183;-74
2023/01/17 05:58:19;;;;;;;3.55;1.13;;;31.40;51.20;;;;;;5075231;28;20195;-72
2023/01/17 06:00:47;;;;;;;3.80;1.10;;;31.10;49.90;;;;;;5067141;28;20192;-74
2023/01/17 06:03:15;;;;;;;3.67;1.30;;;30.40;53.00;;;;;;5054246;28;20294;-70
2023/01/17 06:05:43;;;;;;;7.18;1.42;;;30.90;51.30;;;;;;5056531;28;20188;-71
2023/01/17 06:08:11;;;;;;;6.20;1.35;;;30.70;51.80;;;;;;5072485;28;20261;-71
2023/01/17 06:10:38;;;;;;;5.82;1.17;;;30.80;50.70;;;;;;5068617;28;20187;-75
2023/01/17 06:13:09;;;;;;;1.45;0.70;;;30.80;50.80;;;;;;5061596;28;20589;-69
2023/01/17 06:15:37;;;;;;;4.18;0.98;;;30.50;52.00;;;;;;5056875;28;20192;-74
2023/01/17 06:18:09;;;;;;;5.65;1.40;;;30.10;52.40;;;;;;5067666;28;20175;-74
2023/01/17 06:20:38;;;;;;;6.28;1.23;;;29.90;52.90;;;;;;5075301;28;20520;-77
2023/01/17 06:23:07;;;;;;;3.72;1.05;;;29.80;52.50;;;;;;5067560;28;20190;-71
2023/01/17 06:25:38;;;;;;;3.35;1.13;;;30.10;52.80;;;;;;5066762;28;20186;-76
2023/01/17 06:28:06;;;;;;;4.50;0.88;;;30.50;50.60;;;;;;5075459;28;20180;-69
2023/01/17 06:30:34;;;;;;;5.93;1.35;;;29.90;53.10;;;;;;5061556;28;20597;-70
2023/01/17 06:33:01;;;;;;;4.55;1.10;;;29.90;52.40;;;;;;5075721;28;20198;-71
2023/01/17 06:35:29;;;;;;;2.67;0.90;;;30.70;50.30;;;;;;5050563;28;20179;-70
2023/01/17 06:37:58;;;;;;;5.65;1.10;;;31.80;48.10;;;;;;5054792;28;20183;-71
2023/01/17 06:40:27;;;;;;;6.13;1.17;;;30.40;51.40;;;;;;5063765;28;20215;-72
2023/01/17 06:42:59;;;;;;;5.22;1.15;;;31.00;50.60;;;;;;5069418;28;20187;-72
2023/01/17 06:45:28;;;;;;;3.28;1.08;;;31.00;49.90;;;;;;5066029;28;20187;-70
2023/01/17 06:47:58;;;;;;;2.42;1.10;;;30.30;51.80;;;;;;5057283;28;20214;-70
2023/01/17 06:50:25;;;;;;;3.65;1.23;;;30.00;52.00;;;;;;5061175;28;20246;-76
2023/01/17 06:52:58;;;;;;;5.57;1.20;;;30.20;51.30;;;;;;5048984;28;20244;-72
2023/01/17 06:55:27;;;;;;;6.07;1.17;;;30.60;50.90;;;;;;5060249;28;20642;-72
2023/01/17 06:57:57;;;;;;;5.78;1.10;;;30.20;51.60;;;;;;5062939;28;20191;-73
2023/01/17 07:00:25;;;;;;;4.70;1.37;;;29.70;52.50;;;;;;5064863;28;20190;-76
2023/01/17 07:02:52;;;;;;;3.40;1.20;;;30.00;52.50;;;;;;5060391;28;20187;-75
2023/01/17 07:05:20;;;;;;;4.32;1.10;;;30.10;52.20;;;;;;5067791;28;20181;-76
2023/01/17 07:07:48;;;;;;;4.57;1.00;;;29.70;53.30;;;;;;5074476;28;20701;-69
2023/01/17 07:10:15;;;;;;;4.67;1.20;;;29.50;54.00;;;;;;5074540;28;20579;-72
2023/01/17 07:12:43;;;;;;;2.20;1.00;;;28.90;55.90;;;;;;5064400;28;20550;-70
2023/01/17 07:15:11;;;;;;;5.10;1.07;;;29.20;55.70;;;;;;5074446;28;20187;-71
2023/01/17 07:17:39;;;;;;;3.47;1.03;;;29.20;56.10;;;;;;5067713;28;20171;-75
2023/01/17 07:20:07;;;;;;;4.33;1.10;;;29.20;55.60;;;;;;5074493;28;20219;-69
2023/01/17 07:22:36;;;;;;;6.57;1.20;;;29.50;55.50;;;;;;5057878;28;20187;-72
2023/01/17 07:25:04;;;;;;;6.03;1.10;;;29.90;54.70;;;;;;5056525;28;20191;-72
2023/01/17 07:27:32;;;;;;;7.10;1.23;;;29.10;56.00;;;;;;5060336;28;20182;-75
2023/01/17 07:29:59;;;;;;;4.75;0.93;;;28.90;57.30;;;;;;5068948;28;20313;-73
2023/01/17 07:32:27;;;;;;;4.80;1.10;;;28.80;57.40;;;;;;5074808;28;20512;-73
2023/01/17 07:34:56;;;;;;;2.70;0.97;;;28.00;59.90;;;;;;5074328;28;20184;-71
2023/01/17 07:37:25;;;;;;;6.70;1.53;;;27.80;61.30;;;;;;5074101;28;20187;-71
2023/01/17 07:39:53;;;;;;;5.50;1.43;;;27.40;62.00;;;;;;5073911;28;20215;-70
2023/01/17 07:42:21;;;;;;;4.83;1.00;;;27.30;62.70;;;;;;5073753;28;20278;-70
2023/01/17 07:44:48;;;;;;;9.80;1.47;;;27.10;62.90;;;;;;5050955;28;20188;-70
2023/01/17 07:47:16;;;;;;;3.77;1.00;;;27.00;64.20;;;;;;5065693;28;20176;-70
2023/01/17 07:49:43;;;;;;;6.73;0.97;;;27.10;63.80;;;;;;5063959;28;20190;-71
2023/01/17 07:52:11;;;;;;;4.03;1.10;;;27.00;64.10;;;;;;5054113;28;20226;-73
2023/01/17 07:54:38;;;;;;;6.73;1.10;;;26.90;63.90;;;;;;5057329;28;20179;-70
2023/01/17 07:57:10;;;;;;;5.83;1.40;;;26.60;65.00;;;;;;5073694;28;20167;-69
2023/01/17 07:59:37;;;;;;;6.37;1.10;;;26.30;65.60;;;;;;5067047;28;20677;-69
2023/01/17 08:02:05;;;;;;;5.00;1.33;;;26.20;65.80;;;;;;5063756;28;20218;-71
2023/01/17 08:04:34;;;;;;;7.53;1.40;;;26.20;65.90;;;;;;5060320;28;20193;-69
2023/01/17 08:07:02;;;;;;;5.40;1.27;;;26.10;66.60;;;;;;5073682;28;20211;-69
2023/01/17 08:09:29;;;;;;;4.67;1.27;;;26.00;66.80;;;;;;5067536;28;20203;-70
2023/01/17 08:11:56;;;;;;;6.13;1.60;;;25.60;69.00;;;;;;5062402;28;20184;-70
2023/01/17 08:14:24;;;;;;;5.73;1.17;;;25.80;68.40;;;;;;5057358;28;20218;-74
2023/01/17 08:16:52;;;;;;;3.43;0.90;;;25.80;68.10;;;;;;5059334;28;20642;-70
2023/01/17 08:19:21;;;;;;;4.17;1.07;;;25.60;68.40;;;;;;5052333;28;20216;-69
2023/01/17 08:21:48;;;;;;;6.00;1.20;;;25.60;68.00;;;;;;5055091;28;20255;-69
2023/01/17 08:24:15;;;;;;;3.77;1.07;;;25.50;68.00;;;;;;5054200;28;20180;-71
2023/01/17 08:26:43;;;;;;;2.60;0.80;;;25.50;67.20;;;;;;5051532;28;20175;-68
2023/01/17 08:29:10;;;;;;;3.90;1.23;;;25.60;66.60;;;;;;5051185;28;20188;-70
2023/01/17 08:31:37;;;;;;;6.10;1.10;;;25.50;67.00;;;;;;5052628;28;20184;-69
2023/01/17 08:34:04;;;;;;;5.50;1.20;;;25.30;67.10;;;;;;5052149;28;20530;-70
2023/01/17 08:36:32;;;;;;;6.97;1.10;;;25.30;66.90;;;;;;5052466;28;20183;-70
2023/01/17 08:38:59;;;;;;;3.10;1.00;;;25.30;67.00;;;;;;5052538;28;20591;-72
2023/01/17 08:41:27;;;;;;;6.80;1.40;;;25.30;67.10;;;;;;5051849;28;20190;-68
2023/01/17 08:43:54;;;;;;;5.57;1.10;;;25.30;67.10;;;;;;5052564;28;20480;-70
2023/01/17 08:46:21;;;;;;;2.03;0.90;;;25.20;67.20;;;;;;5052187;28;20211;-68
2023/01/17 08:48:54;;;;;;;8.03;1.30;;;25.00;67.40;;;;;;5051305;28;20310;-73
2023/01/17 08:51:25;;;;;;;4.80;1.30;;;24.90;68.60;;;;;;5050655;28;20310;-71
2023/01/17 08:53:54;;;;;;;4.97;1.10;;;24.90;68.90;;;;;;5044262;28;20191;-76
2023/01/17 08:56:22;;;;;;;7.93;1.00;;;24.70;70.00;;;;;;5053225;28;20186;-71
2023/01/17 08:58:50;;;;;;;4.03;1.10;;;24.70;70.80;;;;;;5051629;28;20243;-69
2023/01/17 09:01:17;;;;;;;3.27;1.10;;;24.70;70.90;;;;;;5053144;28;20260;-68
2023/01/17 09:03:44;;;;;;;3.60;1.40;;;24.80;70.90;;;;;;5054320;28;20176;-69
2023/01/17 09:06:14;;;;;;;6.10;2.47;;;24.70;71.10;;;;;;5054922;28;20627;-67
2023/01/17 09:08:46;;;;;;;3.33;1.37;;;24.80;71.50;;;;;;5050016;28;20249;-69
2023/01/17 09:11:17;;;;;;;7.73;1.53;;;24.60;72.20;;;;;;5052409;28;20191;-71
2023/01/17 09:13:44;;;;;;;2.97;1.00;;;24.50;72.90;;;;;;5047018;28;20180;-69
2023/01/17 09:16:12;;;;;;;3.60;0.90;;;24.40;73.10;;;;;;5056940;28;20189;-68
2023/01/17 09:18:39;;;;;;;2.60;1.00;;;24.30;73.60;;;;;;5058904;28;20291;-71
2023/01/17 09:21:12;;;;;;;4.90;1.37;;;24.30;73.60;;;;;;5059594;28;20176;-68
2023/01/17 09:23:40;;;;;;;4.63;1.10;;;24.40;73.00;;;;;;5052782;28;20718;-69
2023/01/17 09:26:14;;;;;;;2.67;0.70;;;24.30;73.10;;;;;;5052761;28;20190;-68
2023/01/17 09:28:41;;;;;;;3.07;1.17;;;24.30;73.40;;;;;;5053405;28;20180;-71
2023/01/17 09:31:09;;;;;;;3.37;1.00;;;24.30;73.40;;;;;;5053893;28;20539;-73
2023/01/17 09:33:37;;;;;;;3.50;1.03;;;24.20;73.90;;;;;;5056363;28;20179;-71
2023/01/17 09:36:05;;;;;;;3.80;1.10;;;24.20;74.00;;;;;;5054441;28;20266;-74
2023/01/17 09:38:33;;;;;;;6.10;1.43;;;24.10;74.60;;;;;;5054024;28;20199;-71
2023/01/17 09:41:02;;;;;;;4.00;1.03;;;24.10;75.00;;;;;;5053290;28;20643;-70
2023/01/17 09:43:50;;;;;;;4.87;1.07;;;24.10;74.30;;;;;;5049442;28;20176;-70
2023/01/17 09:46:24;;;;;;;3.40;1.10;;;24.00;74.30;;;;;;5048690;28;20544;-71
2023/01/17 09:49:07;;;;;;;3.27;1.17;;;24.10;74.20;;;;;;5053221;28;20537;-70
2023/01/17 09:51:35;;;;;;;4.13;0.97;;;24.10;73.80;;;;;;5053134;28;20265;-67
2023/01/17 09:54:03;;;;;;;3.17;0.90;;;24.00;73.70;;;;;;5050391;28;20176;-68
2023/01/17 09:56:42;;;;;;;3.43;1.00;;;24.10;73.90;;;;;;5057098;28;20581;-70
2023/01/17 09:59:13;;;;;;;6.07;0.90;;;24.00;74.30;;;;;;5054169;28;20216;-71
2023/01/17 10:02:16;;;;;;;5.27;1.03;;;24.00;74.90;;;;;;5052859;28;20182;-73
2023/01/17 10:04:50;;;;;;;3.77;0.90;;;24.00;74.90;;;;;;5057951;28;20275;-68
2023/01/17 10:07:39;;;;;;;4.03;0.97;;;23.90;75.10;;;;;;5050950;28;20267;-69
2023/01/17 10:10:27;;;;;;;4.73;1.37;;;23.90;75.40;;;;;;5083501;28;20191;-68
2023/01/17 10:13:43;;;;;;;6.80;1.20;;;23.90;75.30;;;;;;5045927;28;20190;-68
2023/01/17 10:16:10;;;;;;;5.80;1.47;;;23.80;75.90;;;;;;5009238;28;20186;-68
2023/01/17 10:19:11;;;;;;;5.73;1.20;;;23.80;75.80;;;;;;5049038;28;20220;-71
2023/01/17 10:22:01;;;;;;;10.27;1.10;;;23.80;76.00;;;;;;5048908;28;20195;-68
2023/01/17 10:25:19;;;;;;;2.90;0.97;;;23.80;76.40;;;;;;5053836;28;20550;-67
2023/01/17 10:27:57;;;;;;;6.27;1.10;;;23.80;76.60;;;;;;5045317;28;20233;-68
2023/01/17 10:30:41;;;;;;;3.20;1.13;;;23.80;76.80;;;;;;5056131;28;20184;-68
2023/01/17 10:33:21;;;;;;;4.43;0.80;;;23.70;77.10;;;;;;5047986;28;20184;-69
2023/01/17 10:36:15;;;;;;;5.43;1.00;;;23.70;76.80;;;;;;5054776;28;20179;-69
2023/01/17 10:38:56;;;;;;;2.67;0.77;;;23.80;76.50;;;;;;5054885;28;20302;-69
2023/01/17 10:41:24;;;;;;;3.33;1.00;;;23.70;77.00;;;;;;5055608;28;20208;-68
2023/01/17 10:44:09;;;;;;;3.63;1.10;;;23.60;76.80;;;;;;5050468;28;20195;-70
2023/01/17 10:46:47;;;;;;;7.63;1.40;;;23.70;76.80;;;;;;5052927;28;20646;-69
2023/01/17 10:49:22;;;;;;;6.30;1.20;;;23.70;76.90;;;;;;5054876;28;20182;-71
2023/01/17 10:52:15;;;;;;;3.13;0.73;;;23.70;77.00;;;;;;5054672;28;20277;-67
2023/01/17 10:54:49;;;;;;;3.93;1.17;;;23.70;77.30;;;;;;5048411;28;20186;-69
2023/01/17 10:57:26;;;;;;;3.63;1.30;;;23.70;77.30;;;;;;5053935;28;20168;-71
2023/01/17 11:00:00;;;;;;;3.00;1.03;;;23.60;77.60;;;;;;5054554;28;20211;-68
2023/01/17 11:02:41;;;;;;;1.90;0.63;;;23.60;77.60;;;;;;5053769;28;20175;-68
2023/01/17 11:05:36;;;;;;;2.77;1.00;;;23.60;77.70;;;;;;5053308;28;20543;-69
2023/01/17 11:08:09;;;;;;;4.30;1.00;;;23.60;78.00;;;;;;5056835;28;20182;-68
2023/01/17 11:10:56;;;;;;;3.80;1.13;;;23.50;77.90;;;;;;5055794;28;20190;-70
2023/01/17 11:13:33;;;;;;;4.07;1.03;;;23.50;78.30;;;;;;5063730;28;20246;-68
2023/01/17 11:16:08;;;;;;;4.43;1.10;;;23.50;78.00;;;;;;5057628;28;20188;-70
2023/01/17 11:18:40;;;;;;;9.83;1.20;;;23.50;78.20;;;;;;5056610;28;20290;-69
2023/01/17 11:21:22;;;;;;;4.67;1.20;;;23.50;78.30;;;;;;5068308;28;20677;-68
2023/01/17 11:23:53;;;;;;;4.23;1.00;;;23.60;78.10;;;;;;5058557;28;20263;-68
2023/01/17 11:26:25;;;;;;;4.80;1.20;;;23.50;78.30;;;;;;5055314;28;20219;-69
2023/01/17 11:29:12;;;;;;;5.20;1.33;;;23.50;78.50;;;;;;5060845;28;20176;-68
2023/01/17 11:31:39;;;;;;;3.90;0.90;;;23.30;78.80;;;;;;5050657;28;20386;-68
2023/01/17 11:34:16;;;;;;;4.10;1.10;;;23.30;79.00;;;;;;5055679;28;20234;-67
2023/01/17 11:36:43;;;;;;;7.03;1.50;;;23.30;79.20;;;;;;5055940;28;20250;-69
2023/01/17 11:39:20;;;;;;;4.40;1.10;;;23.30;79.30;;;;;;5055438;28;20218;-69
2023/01/17 11:41:48;;;;;;;9.17;5.27;;;23.40;79.00;;;;;;5059398;28;20171;-68
2023/01/17 11:44:25;;;;;;;8.70;4.20;;;23.30;79.20;;;;;;5058143;28;20267;-68
2023/01/17 11:47:09;;;;;;;5.03;1.40;;;23.30;79.20;;;;;;5054682;28;20168;-73
2023/01/17 11:49:36;;;;;;;4.30;1.03;;;23.30;79.40;;;;;;5067825;28;20187;-72
2023/01/17 11:52:25;;;;;;;5.93;1.30;;;23.30;79.50;;;;;;5053961;28;20224;-69
2023/01/17 11:54:54;;;;;;;9.53;1.57;;;23.40;79.30;;;;;;5054110;28;20634;-68
2023/01/17 11:57:36;;;;;;;6.10;1.60;;;23.30;79.60;;;;;;5053422;28;20191;-70
2023/01/17 12:00:21;;;;;;;6.57;1.27;;;23.30;79.70;;;;;;5054101;28;20351;-69
2023/01/17 12:03:10;;;;;;;7.23;1.53;;;23.30;79.80;;;;;;5052735;28;20187;-69
2023/01/17 12:05:55;;;;;;;8.73;1.40;;;23.20;80.10;;;;;;5052318;28;20210;-69
2023/01/17 12:08:40;;;;;;;2.20;1.03;;;23.20;80.30;;;;;;5042524;28;20180;-68
2023/01/17 12:11:16;;;;;;;5.93;1.27;;;23.20;80.70;;;;;;5053764;28;20214;-68
2023/01/17 12:14:25;;;;;;;3.67;1.30;;;23.20;80.70;;;;;;5052963;28;20708;-68
2023/01/17 12:17:04;;;;;;;8.23;1.40;;;23.20;80.70;;;;;;5012040;28;20189;-71
2023/01/17 12:19:52;;;;;;;6.27;1.23;;;23.10;80.90;;;;;;5041912;28;20219;-72
2023/01/17 12:22:28;;;;;;;6.93;1.43;;;23.10;81.00;;;;;;5052773;28;20180;-72
2023/01/17 12:25:06;;;;;;;4.03;1.30;;;23.10;81.10;;;;;;5053739;28;20631;-73
2023/01/17 12:27:50;;;;;;;11.93;1.80;;;23.10;81.20;;;;;;5052980;28;20249;-71
2023/01/17 12:30:51;;;;;;;8.37;1.40;;;23.10;81.30;;;;;;5053563;28;20176;-68
2023/01/17 12:33:52;;;;;;;7.17;1.53;;;23.10;81.40;;;;;;5052906;28;20233;-70
2023/01/17 12:36:22;;;;;;;5.57;1.30;;;23.00;81.70;;;;;;5053773;28;20638;-69
2023/01/17 12:38:49;;;;;;;4.17;1.20;;;23.00;82.00;;;;;;5040755;28;20191;-69
2023/01/17 12:41:30;;;;;;;8.37;1.37;;;22.90;82.40;;;;;;5052834;28;20230;-71
2023/01/17 12:44:00;;;;;;;9.57;1.90;;;23.00;82.10;;;;;;5042845;28;20233;-68
2023/01/17 12:46:43;;;;;;;7.23;1.70;;;23.00;82.10;;;;;;5053373;28;20222;-69
2023/01/17 12:49:41;;;;;;;7.23;1.40;;;23.00;82.00;;;;;;5052654;28;20537;-69
2023/01/17 12:52:41;;;;;;;6.03;1.73;;;23.00;82.10;;;;;;5052850;28;20319;-68
2023/01/17 12:55:24;;;;;;;11.93;1.77;;;23.00;82.60;;;;;;5047442;28;20183;-69
2023/01/17 12:58:03;;;;;;;8.17;1.63;;;23.00;82.30;;;;;;5052523;28;20184;-68
2023/01/17 13:00:36;;;;;;;8.10;1.70;;;23.00;82.10;;;;;;5052791;28;20218;-68
2023/01/17 13:03:26;;;;;;;8.43;1.87;;;22.90;82.80;;;;;;5045232;28;20655;-67
2023/01/17 13:05:54;;;;;;;4.70;1.60;;;22.90;82.80;;;;;;5052532;28;20534;-68
2023/01/17 13:08:45;;;;;;;9.23;1.60;;;22.90;82.80;;;;;;5052780;28;20635;-68
2023/01/17 13:11:27;;;;;;;11.60;2.00;;;22.80;83.00;;;;;;5053359;28;20180;-71
2023/01/17 13:13:56;;;;;;;6.37;1.53;;;22.80;83.20;;;;;;5051995;28;20223;-67
2023/01/17 13:16:40;;;;;;;7.30;1.70;;;22.80;83.30;;;;;;5052571;28;20182;-69
2023/01/17 13:19:17;;;;;;;4.57;1.07;;;22.80;83.50;;;;;;5052334;28;20207;-69
2023/01/17 13:21:47;;;;;;;10.80;1.67;;;22.80;83.30;;;;;;5055546;28;20199;-71
2023/01/17 13:24:50;;;;;;;10.63;1.80;;;22.80;83.20;;;;;;5046992;28;20262;-70
2023/01/17 13:27:35;;;;;;;8.10;1.67;;;22.80;83.30;;;;;;5032983;28;20188;-74
2023/01/17 13:30:21;;;;;;;7.00;1.67;;;22.80;83.20;;;;;;5052318;28;20226;-70
2023/01/17 13:33:26;;;;;;;6.87;1.53;;;22.80;83.20;;;;;;5051510;28;20202;-75
2023/01/17 13:36:08;;;;;;;7.63;1.70;;;22.80;83.40;;;;;;5052114;28;20715;-73
2023/01/17 13:39:07;;;;;;;7.37;1.73;;;22.80;83.60;;;;;;5051493;28;20202;-69
2023/01/17 13:41:49;;;;;;;8.03;2.27;;;22.80;83.40;;;;;;5052483;28;20178;-72
2023/01/17 13:44:25;;;;;;;6.87;1.47;;;22.70;83.70;;;;;;5052952;28;20262;-73
2023/01/17 13:47:28;;;;;;;7.63;1.70;;;22.60;83.80;;;;;;5052489;28;20177;-73
2023/01/17 13:49:56;;;;;;;15.00;1.67;;;22.60;84.00;;;;;;5044411;28;20538;-68
2023/01/17 13:52:30;;;;;;;10.23;1.83;;;22.60;84.10;;;;;;5051691;28;20191;-70
2023/01/17 13:55:01;;;;;;;9.50;1.40;;;22.50;84.20;;;;;;5051487;28;20188;-69
2023/01/17 13:57:31;;;;;;;11.10;1.97;;;22.40;84.40;;;;;;5067474;28;20521;-70
2023/01/17 14:00:21;;;;;;;5.27;1.57;;;22.50;84.50;;;;;;5045273;28;20242;-71
2023/01/17 14:02:50;;;;;;;9.63;2.03;;;22.60;84.40;;;;;;5047492;28;20274;-69
2023/01/17 14:05:41;;;;;;;14.53;2.40;;;22.60;84.40;;;;;;5056341;28;20168;-69
2023/01/17 14:08:20;;;;;;;6.73;1.60;;;22.50;84.60;;;;;;5056203;28;20697;-70
2023/01/17 14:10:51;;;;;;;6.03;1.77;;;22.40;84.50;;;;;;5054326;28;20258;-68
2023/01/17 14:13:44;;;;;;;9.27;1.40;;;22.30;84.80;;;;;;5055136;28;20221;-73
2023/01/17 14:16:30;;;;;;;4.90;1.60;;;22.30;84.90;;;;;;5042316;28;20716;-70
2023/01/17 14:18:57;;;;;;;8.07;1.70;;;22.30;85.00;;;;;;5053789;28;20621;-69
2023/01/17 14:21:30;;;;;;;6.87;1.70;;;22.30;84.90;;;;;;5055762;28;20176;-69
2023/01/17 14:24:17;;;;;;;6.67;1.50;;;22.30;84.80;;;;;;5056149;28;20180;-71
2023/01/17 14:26:54;;;;;;;7.57;1.53;;;22.40;84.70;;;;;;5056166;28;20630;-69
2023/01/17 14:29:51;;;;;;;9.53;1.50;;;22.30;85.00;;;;;;5054952;28;20198;-70
2023/01/17 14:32:26;;;;;;;5.87;1.47;;;22.40;84.60;;;;;;5055419;28;20326;-71
2023/01/17 14:34:56;;;;;;;8.53;1.63;;;22.40;84.80;;;;;;5054610;28;20183;-71
2023/01/17 14:37:32;;;;;;;9.07;1.67;;;22.30;84.80;;;;;;5055535;28;20716;-70
2023/01/17 14:40:00;;;;;;;6.93;1.43;;;22.30;84.70;;;;;;5054669;28;20203;-70